sensor_id;sensor_type;location;lat;lon;timestamp;temperature;humidity
18281;DHT22;9266;51.132;17.062;2023-04-01T00:01:07;8.20;1.00
18281;DHT22;9266;51.132;17.062;2023-04-01T00:03:34;8.80;1.00
18281;DHT22;9266;51.132;17.062;2023-04-01T00:06:03;8.80;1.00
18281;DHT22;9266;51.132;17.062;2023-04-01T00:10:58;8.90;1.00
18281;DHT22;9266;51.132;17.062;2023-04-01T00:13:26;9.90;1.00
18281;DHT22;9266;51.132;17.062;2023-04-01T00:15:54;9.10;1.00
18281;DHT22;9266;51.132;17.062;2023-04-01T00:18:21;9.10;1.00
18281;DHT22;9266;51.132;17.062;2023-04-01T00:20:49;9.10;1.00
18281;DHT22;9266;51.132;17.062;2023-04-01T00:28:14;9.20;99.90
18281;DHT22;9266;51.132;17.062;2023-04-01T00:30:41;9.10;99.90
18281;DHT22;9266;51.132;17.062;2023-04-01T00:33:09;9.40;99.90
18281;DHT22;9266;51.132;17.062;2023-04-01T00:40:33;9.30;99.90
18281;DHT22;9266;51.132;17.062;2023-04-01T00:43:00;9.50;99.90
18281;DHT22;9266;51.132;17.062;2023-04-01T00:45:33;9.30;99.90
18281;DHT22;9266;51.132;17.062;2023-04-01T00:48:04;9.30;85.30
18281;DHT22;9266;51.132;17.062;2023-04-01T00:50:33;9.40;1.00
18281;DHT22;9266;51.132;17.062;2023-04-01T00:53:02;9.30;1.00
18281;DHT22;9266;51.132;17.062;2023-04-01T00:55:32;9.70;1.00
18281;DHT22;9266;51.132;17.062;2023-04-01T01:00:30;9.20;1.00
18281;DHT22;9266;51.132;17.062;2023-04-01T01:05:33;9.20;99.90
18281;DHT22;9266;51.132;17.062;2023-04-01T01:08:12;9.30;99.90
18281;DHT22;9266;51.132;17.062;2023-04-01T01:10:42;8.40;99.90
18281;DHT22;9266;51.132;17.062;2023-04-01T01:13:17;9.30;99.90
18281;DHT22;9266;51.132;17.062;2023-04-01T01:15:49;9.20;99.90
18281;DHT22;9266;51.132;17.062;2023-04-01T01:18:26;9.20;99.90
18281;DHT22;9266;51.132;17.062;2023-04-01T01:21:26;8.80;99.90
18281;DHT22;9266;51.132;17.062;2023-04-01T01:24:22;9.20;1.00
18281;DHT22;9266;51.132;17.062;2023-04-01T01:27:05;9.20;1.00
18281;DHT22;9266;51.132;17.062;2023-04-01T01:35:05;9.10;1.00
18281;DHT22;9266;51.132;17.062;2023-04-01T01:45:02;9.30;1.00
18281;DHT22;9266;51.132;17.062;2023-04-01T01:47:31;9.30;1.00
18281;DHT22;9266;51.132;17.062;2023-04-01T01:49:59;9.30;1.00
18281;DHT22;9266;51.132;17.062;2023-04-01T01:52:29;9.10;1.00
18281;DHT22;9266;51.132;17.062;2023-04-01T01:54:57;9.40;99.90
18281;DHT22;9266;51.132;17.062;2023-04-01T01:57:27;9.30;99.90
18281;DHT22;9266;51.132;17.062;2023-04-01T01:59:58;9.30;99.90
18281;DHT22;9266;51.132;17.062;2023-04-01T02:02:26;9.30;99.90
18281;DHT22;9266;51.132;17.062;2023-04-01T02:07:28;9.30;99.90
18281;DHT22;9266;51.132;17.062;2023-04-01T02:12:25;9.40;1.00
18281;DHT22;9266;51.132;17.062;2023-04-01T02:14:54;9.30;99.90
18281;DHT22;9266;51.132;17.062;2023-04-01T02:17:24;9.30;99.90
18281;DHT22;9266;51.132;17.062;2023-04-01T02:19:55;9.40;99.90
18281;DHT22;9266;51.132;17.062;2023-04-01T02:22:26;9.00;1.00
18281;DHT22;9266;51.132;17.062;2023-04-01T02:24:58;9.30;1.00
18281;DHT22;9266;51.132;17.062;2023-04-01T02:37:16;10.10;99.90
18281;DHT22;9266;51.132;17.062;2023-04-01T02:42:13;9.40;99.90
18281;DHT22;9266;51.132;17.062;2023-04-01T02:56:57;9.30;1.00
18281;DHT22;9266;51.132;17.062;2023-04-01T02:59:25;8.90;99.90
18281;DHT22;9266;51.132;17.062;2023-04-01T03:04:19;9.70;1.00
18281;DHT22;9266;51.132;17.062;2023-04-01T03:06:46;10.60;1.00
18281;DHT22;9266;51.132;17.062;2023-04-01T03:16:37;9.60;1.00
18281;DHT22;9266;51.132;17.062;2023-04-01T03:23:59;9.60;1.00
18281;DHT22;9266;51.132;17.062;2023-04-01T03:26:26;9.90;99.90
18281;DHT22;9266;51.132;17.062;2023-04-01T03:31:20;9.40;1.00
18281;DHT22;9266;51.132;17.062;2023-04-01T03:33:49;9.70;1.00
18281;DHT22;9266;51.132;17.062;2023-04-01T03:51:06;9.60;99.90
18281;DHT22;9266;51.132;17.062;2023-04-01T03:56:04;9.40;1.00
18281;DHT22;9266;51.132;17.062;2023-04-01T03:58:31;9.50;1.00
18281;DHT22;9266;51.132;17.062;2023-04-01T04:05:52;9.50;1.00
18281;DHT22;9266;51.132;17.062;2023-04-01T04:08:22;9.30;1.00
18281;DHT22;9266;51.132;17.062;2023-04-01T04:13:22;9.20;35.80
18281;DHT22;9266;51.132;17.062;2023-04-01T04:18:16;9.40;99.90
18281;DHT22;9266;51.132;17.062;2023-04-01T04:25:41;9.10;99.90
18281;DHT22;9266;51.132;17.062;2023-04-01T04:30:35;9.30;99.90
18281;DHT22;9266;51.132;17.062;2023-04-01T04:33:02;9.10;99.90
18281;DHT22;9266;51.132;17.062;2023-04-01T04:40:24;9.30;99.90
18281;DHT22;9266;51.132;17.062;2023-04-01T05:07:28;8.90;99.90
18281;DHT22;9266;51.132;17.062;2023-04-01T05:09:55;8.90;99.90
18281;DHT22;9266;51.132;17.062;2023-04-01T05:12:22;9.10;99.90
18281;DHT22;9266;51.132;17.062;2023-04-01T05:14:49;9.20;99.90
18281;DHT22;9266;51.132;17.062;2023-04-01T05:17:17;9.10;99.90
18281;DHT22;9266;51.132;17.062;2023-04-01T05:24:39;9.70;99.90
18281;DHT22;9266;51.132;17.062;2023-04-01T05:34:29;9.30;99.90
18281;DHT22;9266;51.132;17.062;2023-04-01T05:46:46;8.70;99.90
18281;DHT22;9266;51.132;17.062;2023-04-01T06:03:58;9.00;99.90
18281;DHT22;9266;51.132;17.062;2023-04-01T06:08:56;9.10;99.90
18281;DHT22;9266;51.132;17.062;2023-04-01T06:14:05;9.20;99.90
18281;DHT22;9266;51.132;17.062;2023-04-01T06:16:43;9.40;99.90
18281;DHT22;9266;51.132;17.062;2023-04-01T06:19:20;9.80;99.90
18281;DHT22;9266;51.132;17.062;2023-04-01T06:27:50;9.40;99.90
18281;DHT22;9266;51.132;17.062;2023-04-01T06:30:38;9.40;99.90
18281;DHT22;9266;51.132;17.062;2023-04-01T06:33:20;9.50;99.90
18281;DHT22;9266;51.132;17.062;2023-04-01T06:36:12;9.50;99.90
18281;DHT22;9266;51.132;17.062;2023-04-01T06:41:27;9.60;99.90
18281;DHT22;9266;51.132;17.062;2023-04-01T06:44:05;9.60;99.90
18281;DHT22;9266;51.132;17.062;2023-04-01T06:46:44;9.60;99.90
18281;DHT22;9266;51.132;17.062;2023-04-01T06:51:55;9.70;99.90
18281;DHT22;9266;51.132;17.062;2023-04-01T06:54:30;9.70;99.90
18281;DHT22;9266;51.132;17.062;2023-04-01T06:57:02;9.70;99.90
18281;DHT22;9266;51.132;17.062;2023-04-01T06:59:33;9.70;99.90
18281;DHT22;9266;51.132;17.062;2023-04-01T07:02:05;9.80;99.90
18281;DHT22;9266;51.132;17.062;2023-04-01T07:04:40;9.80;99.90
18281;DHT22;9266;51.132;17.062;2023-04-01T07:07:15;9.80;99.90
18281;DHT22;9266;51.132;17.062;2023-04-01T07:09:51;9.80;99.90
18281;DHT22;9266;51.132;17.062;2023-04-01T07:12:33;9.90;99.90
18281;DHT22;9266;51.132;17.062;2023-04-01T07:17:35;7.00;99.90
18281;DHT22;9266;51.132;17.062;2023-04-01T07:22:34;10.00;99.90
18281;DHT22;9266;51.132;17.062;2023-04-01T07:25:10;10.00;99.90
18281;DHT22;9266;51.132;17.062;2023-04-01T07:27:39;10.10;99.90
18281;DHT22;9266;51.132;17.062;2023-04-01T07:30:14;10.10;99.90
18281;DHT22;9266;51.132;17.062;2023-04-01T07:35:22;10.20;99.90
18281;DHT22;9266;51.132;17.062;2023-04-01T07:38:04;10.10;99.90
18281;DHT22;9266;51.132;17.062;2023-04-01T07:40:39;10.10;99.90
18281;DHT22;9266;51.132;17.062;2023-04-01T07:45:48;10.10;99.90
18281;DHT22;9266;51.132;17.062;2023-04-01T07:48:23;10.10;99.90
18281;DHT22;9266;51.132;17.062;2023-04-01T07:50:56;10.10;99.90
18281;DHT22;9266;51.132;17.062;2023-04-01T07:56:00;10.20;99.90
18281;DHT22;9266;51.132;17.062;2023-04-01T08:01:06;10.50;99.90
18281;DHT22;9266;51.132;17.062;2023-04-01T08:06:35;10.80;99.90
18281;DHT22;9266;51.132;17.062;2023-04-01T08:09:10;10.90;99.90
18281;DHT22;9266;51.132;17.062;2023-04-01T08:11:51;10.90;99.90
18281;DHT22;9266;51.132;17.062;2023-04-01T08:14:32;10.80;99.90
18281;DHT22;9266;51.132;17.062;2023-04-01T08:17:07;10.80;99.90
18281;DHT22;9266;51.132;17.062;2023-04-01T08:19:48;10.90;99.90
18281;DHT22;9266;51.132;17.062;2023-04-01T08:22:25;10.80;99.90
18281;DHT22;9266;51.132;17.062;2023-04-01T08:24:56;10.80;99.90
18281;DHT22;9266;51.132;17.062;2023-04-01T08:32:32;11.10;99.90
18281;DHT22;9266;51.132;17.062;2023-04-01T08:35:08;11.10;99.90
18281;DHT22;9266;51.132;17.062;2023-04-01T08:37:39;11.20;99.90
18281;DHT22;9266;51.132;17.062;2023-04-01T08:40:26;11.30;99.90
18281;DHT22;9266;51.132;17.062;2023-04-01T08:45:54;11.60;99.90
18281;DHT22;9266;51.132;17.062;2023-04-01T08:48:32;11.50;99.90
18281;DHT22;9266;51.132;17.062;2023-04-01T08:51:30;11.30;99.90
18281;DHT22;9266;51.132;17.062;2023-04-01T08:54:21;11.30;99.90
18281;DHT22;9266;51.132;17.062;2023-04-01T08:56:58;11.30;99.90
18281;DHT22;9266;51.132;17.062;2023-04-01T08:59:49;11.30;99.90
18281;DHT22;9266;51.132;17.062;2023-04-01T09:05:55;11.90;99.90
18281;DHT22;9266;51.132;17.062;2023-04-01T09:08:37;11.80;99.90
18281;DHT22;9266;51.132;17.062;2023-04-01T09:11:26;11.80;99.90
18281;DHT22;9266;51.132;17.062;2023-04-01T09:19:53;12.30;99.90
18281;DHT22;9266;51.132;17.062;2023-04-01T09:22:44;12.40;99.90
18281;DHT22;9266;51.132;17.062;2023-04-01T09:25:40;12.70;99.90
18281;DHT22;9266;51.132;17.062;2023-04-01T09:28:12;12.80;46.20
18281;DHT22;9266;51.132;17.062;2023-04-01T09:34:03;12.60;1.00
18281;DHT22;9266;51.132;17.062;2023-04-01T09:36:54;12.70;99.90
18281;DHT22;9266;51.132;17.062;2023-04-01T09:39:38;12.70;1.00
18281;DHT22;9266;51.132;17.062;2023-04-01T09:42:24;12.70;16.40
18281;DHT22;9266;51.132;17.062;2023-04-01T09:44:58;12.50;99.90
18281;DHT22;9266;51.132;17.062;2023-04-01T09:47:43;12.40;1.00
18281;DHT22;9266;51.132;17.062;2023-04-01T09:52:54;11.90;1.00
18281;DHT22;9266;51.132;17.062;2023-04-01T10:13:36;12.00;1.00
18281;DHT22;9266;51.132;17.062;2023-04-01T10:19:25;12.10;1.00
18281;DHT22;9266;51.132;17.062;2023-04-01T10:22:30;12.30;1.00
18281;DHT22;9266;51.132;17.062;2023-04-01T10:25:19;12.50;1.00
18281;DHT22;9266;51.132;17.062;2023-04-01T11:01:53;10.00;99.90
18281;DHT22;9266;51.132;17.062;2023-04-01T11:07:58;10.20;99.90
18281;DHT22;9266;51.132;17.062;2023-04-01T11:13:36;10.30;99.90
18281;DHT22;9266;51.132;17.062;2023-04-01T11:19:20;10.70;99.90
18281;DHT22;9266;51.132;17.062;2023-04-01T11:22:16;11.00;99.90
18281;DHT22;9266;51.132;17.062;2023-04-01T11:31:12;12.10;1.00
18281;DHT22;9266;51.132;17.062;2023-04-01T11:33:50;12.30;1.00
18281;DHT22;9266;51.132;17.062;2023-04-01T11:36:25;12.10;99.90
18281;DHT22;9266;51.132;17.062;2023-04-01T11:39:14;11.70;99.90
18281;DHT22;9266;51.132;17.062;2023-04-01T11:44:21;11.60;1.00
18281;DHT22;9266;51.132;17.062;2023-04-01T11:49:56;10.50;99.90
18281;DHT22;9266;51.132;17.062;2023-04-01T11:52:37;10.40;99.90
18281;DHT22;9266;51.132;17.062;2023-04-01T11:55:25;10.40;1.00
18281;DHT22;9266;51.132;17.062;2023-04-01T11:58:28;10.50;1.00
18281;DHT22;9266;51.132;17.062;2023-04-01T12:01:17;10.50;1.00
18281;DHT22;9266;51.132;17.062;2023-04-01T12:07:06;10.90;63.90
18281;DHT22;9266;51.132;17.062;2023-04-01T12:09:46;11.00;1.00
18281;DHT22;9266;51.132;17.062;2023-04-01T12:12:23;11.10;1.00
18281;DHT22;9266;51.132;17.062;2023-04-01T12:15:00;11.00;1.00
18281;DHT22;9266;51.132;17.062;2023-04-01T12:17:37;11.10;1.00
18281;DHT22;9266;51.132;17.062;2023-04-01T12:20:28;11.30;99.90
18281;DHT22;9266;51.132;17.062;2023-04-01T12:25:46;12.00;97.60
18281;DHT22;9266;51.132;17.062;2023-04-01T12:28:21;12.00;99.90
18281;DHT22;9266;51.132;17.062;2023-04-01T12:31:06;12.10;1.00
18281;DHT22;9266;51.132;17.062;2023-04-01T12:33:48;12.20;99.90
18281;DHT22;9266;51.132;17.062;2023-04-01T12:39:24;12.40;8.70
18281;DHT22;9266;51.132;17.062;2023-04-01T12:42:04;12.50;1.00
18281;DHT22;9266;51.132;17.062;2023-04-01T12:44:42;16.60;1.00
18281;DHT22;9266;51.132;17.062;2023-04-01T12:47:40;12.40;1.00
18281;DHT22;9266;51.132;17.062;2023-04-01T12:50:26;12.40;91.80
18281;DHT22;9266;51.132;17.062;2023-04-01T12:53:15;12.80;77.40
18281;DHT22;9266;51.132;17.062;2023-04-01T12:55:48;13.00;1.00
18281;DHT22;9266;51.132;17.062;2023-04-01T13:01:30;13.40;1.00
18281;DHT22;9266;51.132;17.062;2023-04-01T13:04:43;13.90;99.90
18281;DHT22;9266;51.132;17.062;2023-04-01T13:07:29;14.20;99.90
18281;DHT22;9266;51.132;17.062;2023-04-01T13:10:04;17.40;1.00
18281;DHT22;9266;51.132;17.062;2023-04-01T13:12:48;13.90;1.00
18281;DHT22;9266;51.132;17.062;2023-04-01T13:15:26;14.20;1.00
18281;DHT22;9266;51.132;17.062;2023-04-01T13:18:02;16.10;1.00
18281;DHT22;9266;51.132;17.062;2023-04-01T13:23:29;14.10;1.00
18281;DHT22;9266;51.132;17.062;2023-04-01T13:28:32;13.20;1.00
18281;DHT22;9266;51.132;17.062;2023-04-01T13:31:04;14.90;38.60
18281;DHT22;9266;51.132;17.062;2023-04-01T13:33:38;13.40;99.90
18281;DHT22;9266;51.132;17.062;2023-04-01T13:36:17;13.20;1.00
18281;DHT22;9266;51.132;17.062;2023-04-01T13:39:09;12.50;1.00
18281;DHT22;9266;51.132;17.062;2023-04-01T13:41:58;12.40;99.90
18281;DHT22;9266;51.132;17.062;2023-04-01T13:44:32;12.70;99.90
18281;DHT22;9266;51.132;17.062;2023-04-01T13:47:40;12.70;1.00
18281;DHT22;9266;51.132;17.062;2023-04-01T13:50:23;12.90;1.00
18281;DHT22;9266;51.132;17.062;2023-04-01T13:53:16;12.90;99.90
18281;DHT22;9266;51.132;17.062;2023-04-01T13:56:04;12.80;96.60
18281;DHT22;9266;51.132;17.062;2023-04-01T13:59:02;12.90;1.00
18281;DHT22;9266;51.132;17.062;2023-04-01T14:01:37;12.90;99.90
18281;DHT22;9266;51.132;17.062;2023-04-01T14:07:05;12.90;1.00
18281;DHT22;9266;51.132;17.062;2023-04-01T14:09:54;12.70;1.00
18281;DHT22;9266;51.132;17.062;2023-04-01T14:15:23;13.00;1.00
18281;DHT22;9266;51.132;17.062;2023-04-01T14:18:01;13.00;99.90
18281;DHT22;9266;51.132;17.062;2023-04-01T14:23:24;12.90;1.00
18281;DHT22;9266;51.132;17.062;2023-04-01T14:28:42;12.50;1.00
18281;DHT22;9266;51.132;17.062;2023-04-01T14:31:38;12.70;99.90
18281;DHT22;9266;51.132;17.062;2023-04-01T14:34:22;12.50;1.00
18281;DHT22;9266;51.132;17.062;2023-04-01T14:37:12;12.40;1.00
18281;DHT22;9266;51.132;17.062;2023-04-01T14:40:11;12.20;99.90
18281;DHT22;9266;51.132;17.062;2023-04-01T14:42:55;12.10;1.00
18281;DHT22;9266;51.132;17.062;2023-04-01T14:45:57;11.80;1.00
18281;DHT22;9266;51.132;17.062;2023-04-01T14:48:31;11.70;1.00
18281;DHT22;9266;51.132;17.062;2023-04-01T14:51:03;11.60;99.90
18281;DHT22;9266;51.132;17.062;2023-04-01T14:56:04;11.50;91.00
18281;DHT22;9266;51.132;17.062;2023-04-01T14:58:42;11.40;1.00
18281;DHT22;9266;51.132;17.062;2023-04-01T15:01:32;11.30;1.00
18281;DHT22;9266;51.132;17.062;2023-04-01T15:04:22;11.30;99.90
18281;DHT22;9266;51.132;17.062;2023-04-01T15:07:03;11.10;99.90
18281;DHT22;9266;51.132;17.062;2023-04-01T15:12:14;10.80;99.90
18281;DHT22;9266;51.132;17.062;2023-04-01T15:17:47;10.60;1.00
18281;DHT22;9266;51.132;17.062;2023-04-01T15:23:19;10.60;99.90
18281;DHT22;9266;51.132;17.062;2023-04-01T15:28:30;10.50;99.90
18281;DHT22;9266;51.132;17.062;2023-04-01T15:36:32;10.30;99.90
18281;DHT22;9266;51.132;17.062;2023-04-01T15:39:10;10.30;99.90
18281;DHT22;9266;51.132;17.062;2023-04-01T15:44:37;10.30;99.90
18281;DHT22;9266;51.132;17.062;2023-04-01T15:47:33;10.20;99.90
18281;DHT22;9266;51.132;17.062;2023-04-01T15:50:29;10.10;99.90
18281;DHT22;9266;51.132;17.062;2023-04-01T15:55:37;10.10;99.90
18281;DHT22;9266;51.132;17.062;2023-04-01T15:58:32;10.20;99.90
18281;DHT22;9266;51.132;17.062;2023-04-01T16:01:10;10.30;99.90
18281;DHT22;9266;51.132;17.062;2023-04-01T16:06:21;10.00;99.90
18281;DHT22;9266;51.132;17.062;2023-04-01T16:09:02;10.60;99.90
18281;DHT22;9266;51.132;17.062;2023-04-01T16:11:40;10.40;99.90
18281;DHT22;9266;51.132;17.062;2023-04-01T16:14:20;10.50;99.90
18281;DHT22;9266;51.132;17.062;2023-04-01T16:17:00;10.30;99.90
18281;DHT22;9266;51.132;17.062;2023-04-01T16:19:41;10.30;99.90
18281;DHT22;9266;51.132;17.062;2023-04-01T16:22:18;10.30;99.90
18281;DHT22;9266;51.132;17.062;2023-04-01T16:24:51;10.30;99.90
18281;DHT22;9266;51.132;17.062;2023-04-01T16:27:27;10.20;99.90
18281;DHT22;9266;51.132;17.062;2023-04-01T16:30:00;10.10;99.90
18281;DHT22;9266;51.132;17.062;2023-04-01T16:32:36;10.20;99.90
18281;DHT22;9266;51.132;17.062;2023-04-01T16:35:25;10.10;99.90
18281;DHT22;9266;51.132;17.062;2023-04-01T16:38:01;9.80;99.90
18281;DHT22;9266;51.132;17.062;2023-04-01T16:40:41;10.00;99.90
18281;DHT22;9266;51.132;17.062;2023-04-01T16:43:20;10.00;99.90
18281;DHT22;9266;51.132;17.062;2023-04-01T16:45:57;10.00;99.90
18281;DHT22;9266;51.132;17.062;2023-04-01T16:48:44;10.00;99.90
18281;DHT22;9266;51.132;17.062;2023-04-01T16:51:15;9.90;99.90
18281;DHT22;9266;51.132;17.062;2023-04-01T16:53:48;9.90;99.90
18281;DHT22;9266;51.132;17.062;2023-04-01T16:56:21;10.00;99.90
18281;DHT22;9266;51.132;17.062;2023-04-01T16:58:58;10.00;99.90
18281;DHT22;9266;51.132;17.062;2023-04-01T17:01:29;10.00;99.90
18281;DHT22;9266;51.132;17.062;2023-04-01T17:04:04;10.00;99.90
18281;DHT22;9266;51.132;17.062;2023-04-01T17:09:25;10.00;99.90
18281;DHT22;9266;51.132;17.062;2023-04-01T17:12:00;10.00;99.90
18281;DHT22;9266;51.132;17.062;2023-04-01T17:17:10;10.20;99.90
18281;DHT22;9266;51.132;17.062;2023-04-01T17:19:48;10.00;99.90
18281;DHT22;9266;51.132;17.062;2023-04-01T17:22:25;10.00;99.90
18281;DHT22;9266;51.132;17.062;2023-04-01T17:25:02;10.00;99.90
18281;DHT22;9266;51.132;17.062;2023-04-01T17:27:42;10.00;99.90
18281;DHT22;9266;51.132;17.062;2023-04-01T17:30:21;9.70;99.90
18281;DHT22;9266;51.132;17.062;2023-04-01T17:33:09;10.00;99.90
18281;DHT22;9266;51.132;17.062;2023-04-01T17:35:42;10.00;99.90
18281;DHT22;9266;51.132;17.062;2023-04-01T17:38:17;9.90;99.90
18281;DHT22;9266;51.132;17.062;2023-04-01T17:40:59;10.00;99.90
18281;DHT22;9266;51.132;17.062;2023-04-01T17:43:36;10.00;99.90
18281;DHT22;9266;51.132;17.062;2023-04-01T17:46:26;8.80;99.90
18281;DHT22;9266;51.132;17.062;2023-04-01T17:48:59;9.80;99.90
18281;DHT22;9266;51.132;17.062;2023-04-01T17:51:31;9.70;99.90
18281;DHT22;9266;51.132;17.062;2023-04-01T17:54:08;9.60;99.90
18281;DHT22;9266;51.132;17.062;2023-04-01T17:56:52;9.70;99.90
18281;DHT22;9266;51.132;17.062;2023-04-01T17:59:28;9.70;99.90
18281;DHT22;9266;51.132;17.062;2023-04-01T18:02:03;9.60;99.90
18281;DHT22;9266;51.132;17.062;2023-04-01T18:05:00;9.60;99.90
18281;DHT22;9266;51.132;17.062;2023-04-01T18:07:52;9.60;99.90
18281;DHT22;9266;51.132;17.062;2023-04-01T18:10:26;9.50;99.90
18281;DHT22;9266;51.132;17.062;2023-04-01T18:13:19;9.50;99.90
18281;DHT22;9266;51.132;17.062;2023-04-01T18:15:59;9.40;99.90
18281;DHT22;9266;51.132;17.062;2023-04-01T18:18:37;9.40;99.90
18281;DHT22;9266;51.132;17.062;2023-04-01T18:21:12;9.30;99.90
18281;DHT22;9266;51.132;17.062;2023-04-01T18:23:44;9.40;99.90
18281;DHT22;9266;51.132;17.062;2023-04-01T18:26:20;9.80;99.90
18281;DHT22;9266;51.132;17.062;2023-04-01T18:28:54;9.40;99.90
18281;DHT22;9266;51.132;17.062;2023-04-01T18:31:24;9.40;99.90
18281;DHT22;9266;51.132;17.062;2023-04-01T18:38:56;9.20;99.90
18281;DHT22;9266;51.132;17.062;2023-04-01T18:41:32;9.10;99.90
18281;DHT22;9266;51.132;17.062;2023-04-01T18:44:18;9.10;99.90
18281;DHT22;9266;51.132;17.062;2023-04-01T18:49:29;9.10;99.90
18281;DHT22;9266;51.132;17.062;2023-04-01T18:54:29;9.00;99.90
18281;DHT22;9266;51.132;17.062;2023-04-01T19:04:38;8.90;99.90
18281;DHT22;9266;51.132;17.062;2023-04-01T19:12:34;9.00;99.90
18281;DHT22;9266;51.132;17.062;2023-04-01T19:15:24;9.00;99.90
18281;DHT22;9266;51.132;17.062;2023-04-01T19:18:07;8.90;99.90
18281;DHT22;9266;51.132;17.062;2023-04-01T19:23:35;8.90;99.90
18281;DHT22;9266;51.132;17.062;2023-04-01T19:28:41;8.90;99.90
18281;DHT22;9266;51.132;17.062;2023-04-01T19:31:23;8.90;99.90
18281;DHT22;9266;51.132;17.062;2023-04-01T19:39:04;8.70;99.90
18281;DHT22;9266;51.132;17.062;2023-04-01T19:41:40;8.70;99.90
18281;DHT22;9266;51.132;17.062;2023-04-01T19:49:28;8.80;99.90
18281;DHT22;9266;51.132;17.062;2023-04-01T19:52:02;8.60;99.90
18281;DHT22;9266;51.132;17.062;2023-04-01T19:54:36;8.60;99.90
18281;DHT22;9266;51.132;17.062;2023-04-01T19:57:15;8.60;99.90
18281;DHT22;9266;51.132;17.062;2023-04-01T19:59:49;8.70;99.90
18281;DHT22;9266;51.132;17.062;2023-04-01T20:02:43;8.70;99.90
18281;DHT22;9266;51.132;17.062;2023-04-01T20:05:30;8.40;99.90
18281;DHT22;9266;51.132;17.062;2023-04-01T20:13:05;8.60;99.90
18281;DHT22;9266;51.132;17.062;2023-04-01T20:18:08;4.20;99.90
18281;DHT22;9266;51.132;17.062;2023-04-01T20:26:02;8.30;99.90
18281;DHT22;9266;51.132;17.062;2023-04-01T20:28:36;8.60;99.90
18281;DHT22;9266;51.132;17.062;2023-04-01T20:31:29;8.60;99.90
18281;DHT22;9266;51.132;17.062;2023-04-01T20:34:30;8.60;99.90
18281;DHT22;9266;51.132;17.062;2023-04-01T20:40:01;8.50;99.90
18281;DHT22;9266;51.132;17.062;2023-04-01T20:42:47;8.50;99.90
18281;DHT22;9266;51.132;17.062;2023-04-01T20:48:09;8.50;99.90
18281;DHT22;9266;51.132;17.062;2023-04-01T20:50:44;8.10;99.90
18281;DHT22;9266;51.132;17.062;2023-04-01T20:58:34;8.40;99.90
18281;DHT22;9266;51.132;17.062;2023-04-01T21:03:43;8.40;99.90
18281;DHT22;9266;51.132;17.062;2023-04-01T21:06:43;8.30;99.90
18281;DHT22;9266;51.132;17.062;2023-04-01T21:09:35;8.30;99.90
18281;DHT22;9266;51.132;17.062;2023-04-01T21:12:17;8.20;99.90
18281;DHT22;9266;51.132;17.062;2023-04-01T21:15:10;8.30;99.90
18281;DHT22;9266;51.132;17.062;2023-04-01T21:20:26;8.10;99.90
18281;DHT22;9266;51.132;17.062;2023-04-01T21:23:08;8.00;99.90
18281;DHT22;9266;51.132;17.062;2023-04-01T21:28:30;8.30;99.90
18281;DHT22;9266;51.132;17.062;2023-04-01T21:39:06;7.90;99.90
18281;DHT22;9266;51.132;17.062;2023-04-01T22:04:03;7.60;99.90
18281;DHT22;9266;51.132;17.062;2023-04-01T22:06:39;7.40;99.90
18281;DHT22;9266;51.132;17.062;2023-04-01T22:09:11;7.60;99.90
18281;DHT22;9266;51.132;17.062;2023-04-01T22:19:26;7.40;99.90
18281;DHT22;9266;51.132;17.062;2023-04-01T22:22:01;7.60;99.90
18281;DHT22;9266;51.132;17.062;2023-04-01T22:24:37;7.60;99.90
18281;DHT22;9266;51.132;17.062;2023-04-01T22:27:14;7.50;99.90
18281;DHT22;9266;51.132;17.062;2023-04-01T22:29:51;7.40;99.90
18281;DHT22;9266;51.132;17.062;2023-04-01T22:32:24;7.40;99.90
18281;DHT22;9266;51.132;17.062;2023-04-01T22:35:00;7.40;99.90
18281;DHT22;9266;51.132;17.062;2023-04-01T22:42:53;7.40;99.90
18281;DHT22;9266;51.132;17.062;2023-04-01T22:45:50;7.40;99.90
18281;DHT22;9266;51.132;17.062;2023-04-01T22:50:56;7.40;99.90
18281;DHT22;9266;51.132;17.062;2023-04-01T22:53:45;7.40;99.90
18281;DHT22;9266;51.132;17.062;2023-04-01T23:03:50;7.40;99.90
18281;DHT22;9266;51.132;17.062;2023-04-01T23:08:59;7.40;99.90
18281;DHT22;9266;51.132;17.062;2023-04-01T23:11:31;7.40;99.90
18281;DHT22;9266;51.132;17.062;2023-04-01T23:14:29;7.30;99.90
18281;DHT22;9266;51.132;17.062;2023-04-01T23:54:29;6.60;99.90
